sensor_id;sensor_type;location;lat;lon;timestamp;temperature;humidity
62583;DHT22;48641;51.676;5.808;2023-05-14T00:01:14;20.30;65.40
62583;DHT22;48641;51.676;5.808;2023-05-14T00:03:40;20.30;65.40
62583;DHT22;48641;51.676;5.808;2023-05-14T00:06:06;20.30;65.50
62583;DHT22;48641;51.676;5.808;2023-05-14T00:08:32;20.30;65.50
62583;DHT22;48641;51.676;5.808;2023-05-14T00:10:58;20.30;65.50
62583;DHT22;48641;51.676;5.808;2023-05-14T00:13:24;20.30;65.50
62583;DHT22;48641;51.676;5.808;2023-05-14T00:15:50;20.30;65.50
62583;DHT22;48641;51.676;5.808;2023-05-14T00:18:16;20.30;65.50
62583;DHT22;48641;51.676;5.808;2023-05-14T00:20:41;20.30;65.50
62583;DHT22;48641;51.676;5.808;2023-05-14T00:23:07;20.30;65.50
62583;DHT22;48641;51.676;5.808;2023-05-14T00:25:33;20.30;65.40
62583;DHT22;48641;51.676;5.808;2023-05-14T00:27:58;20.30;65.40
62583;DHT22;48641;51.676;5.808;2023-05-14T00:30:26;20.30;65.40
62583;DHT22;48641;51.676;5.808;2023-05-14T00:32:52;20.30;65.40
62583;DHT22;48641;51.676;5.808;2023-05-14T00:35:18;20.30;65.40
62583;DHT22;48641;51.676;5.808;2023-05-14T00:37:44;20.30;65.50
62583;DHT22;48641;51.676;5.808;2023-05-14T00:40:10;20.30;65.50
62583;DHT22;48641;51.676;5.808;2023-05-14T00:42:38;20.30;65.40
62583;DHT22;48641;51.676;5.808;2023-05-14T00:45:04;20.20;65.40
62583;DHT22;48641;51.676;5.808;2023-05-14T00:47:30;20.20;65.40
62583;DHT22;48641;51.676;5.808;2023-05-14T00:49:56;20.20;65.40
62583;DHT22;48641;51.676;5.808;2023-05-14T00:52:22;20.30;65.50
62583;DHT22;48641;51.676;5.808;2023-05-14T00:54:48;20.20;65.40
62583;DHT22;48641;51.676;5.808;2023-05-14T00:57:13;20.30;65.50
62583;DHT22;48641;51.676;5.808;2023-05-14T00:59:39;20.30;65.50
62583;DHT22;48641;51.676;5.808;2023-05-14T01:02:06;20.20;65.40
62583;DHT22;48641;51.676;5.808;2023-05-14T01:04:32;20.20;65.50
62583;DHT22;48641;51.676;5.808;2023-05-14T01:09:51;20.20;65.40
62583;DHT22;48641;51.676;5.808;2023-05-14T01:14:57;20.20;65.50
62583;DHT22;48641;51.676;5.808;2023-05-14T01:17:27;20.20;65.50
62583;DHT22;48641;51.676;5.808;2023-05-14T01:19:55;20.20;65.50
62583;DHT22;48641;51.676;5.808;2023-05-14T01:22:22;20.20;65.60
62583;DHT22;48641;51.676;5.808;2023-05-14T01:24:47;20.20;65.50
62583;DHT22;48641;51.676;5.808;2023-05-14T01:27:17;20.20;65.40
62583;DHT22;48641;51.676;5.808;2023-05-14T01:29:52;20.10;65.40
62583;DHT22;48641;51.676;5.808;2023-05-14T01:32:22;20.20;65.40
62583;DHT22;48641;51.676;5.808;2023-05-14T01:34:49;20.20;65.40
62583;DHT22;48641;51.676;5.808;2023-05-14T01:37:15;20.20;65.40
62583;DHT22;48641;51.676;5.808;2023-05-14T01:39:41;20.20;65.50
62583;DHT22;48641;51.676;5.808;2023-05-14T01:42:07;20.20;65.40
62583;DHT22;48641;51.676;5.808;2023-05-14T01:44:33;20.20;65.40
62583;DHT22;48641;51.676;5.808;2023-05-14T01:46:59;20.20;65.40
62583;DHT22;48641;51.676;5.808;2023-05-14T01:49:25;20.20;65.40
62583;DHT22;48641;51.676;5.808;2023-05-14T01:51:51;20.20;65.40
62583;DHT22;48641;51.676;5.808;2023-05-14T01:54:16;20.20;65.40
62583;DHT22;48641;51.676;5.808;2023-05-14T01:56:42;20.10;65.30
62583;DHT22;48641;51.676;5.808;2023-05-14T01:59:08;20.10;65.40
62583;DHT22;48641;51.676;5.808;2023-05-14T02:01:33;20.20;65.40
62583;DHT22;48641;51.676;5.808;2023-05-14T02:03:59;20.10;65.30
62583;DHT22;48641;51.676;5.808;2023-05-14T02:06:25;20.10;65.30
62583;DHT22;48641;51.676;5.808;2023-05-14T02:08:51;20.20;65.40
62583;DHT22;48641;51.676;5.808;2023-05-14T02:11:16;20.10;65.30
62583;DHT22;48641;51.676;5.808;2023-05-14T02:13:42;20.10;65.30
62583;DHT22;48641;51.676;5.808;2023-05-14T02:16:08;20.20;65.40
62583;DHT22;48641;51.676;5.808;2023-05-14T02:18:33;20.10;65.30
62583;DHT22;48641;51.676;5.808;2023-05-14T02:20:59;20.10;65.40
62583;DHT22;48641;51.676;5.808;2023-05-14T02:23:25;20.10;65.30
62583;DHT22;48641;51.676;5.808;2023-05-14T02:25:50;20.10;65.30
62583;DHT22;48641;51.676;5.808;2023-05-14T02:28:16;20.10;65.30
62583;DHT22;48641;51.676;5.808;2023-05-14T02:30:41;20.10;65.30
62583;DHT22;48641;51.676;5.808;2023-05-14T02:33:07;20.10;65.30
62583;DHT22;48641;51.676;5.808;2023-05-14T02:35:32;20.10;65.30
62583;DHT22;48641;51.676;5.808;2023-05-14T02:37:58;20.10;65.30
62583;DHT22;48641;51.676;5.808;2023-05-14T02:40:26;20.10;65.30
62583;DHT22;48641;51.676;5.808;2023-05-14T02:42:52;20.10;65.30
62583;DHT22;48641;51.676;5.808;2023-05-14T02:45:18;20.10;65.30
62583;DHT22;48641;51.676;5.808;2023-05-14T02:47:43;20.10;65.30
62583;DHT22;48641;51.676;5.808;2023-05-14T02:50:09;20.10;65.30
62583;DHT22;48641;51.676;5.808;2023-05-14T02:52:35;20.10;65.30
62583;DHT22;48641;51.676;5.808;2023-05-14T02:55:01;20.10;65.30
62583;DHT22;48641;51.676;5.808;2023-05-14T02:57:26;20.10;65.20
62583;DHT22;48641;51.676;5.808;2023-05-14T02:59:52;20.10;65.20
62583;DHT22;48641;51.676;5.808;2023-05-14T03:02:18;20.10;65.20
62583;DHT22;48641;51.676;5.808;2023-05-14T03:04:43;20.10;65.20
62583;DHT22;48641;51.676;5.808;2023-05-14T03:07:09;20.10;65.20
62583;DHT22;48641;51.676;5.808;2023-05-14T03:09:34;20.10;65.20
62583;DHT22;48641;51.676;5.808;2023-05-14T03:12:00;20.00;65.10
62583;DHT22;48641;51.676;5.808;2023-05-14T03:14:25;20.10;65.20
62583;DHT22;48641;51.676;5.808;2023-05-14T03:16:51;20.00;65.10
62583;DHT22;48641;51.676;5.808;2023-05-14T03:19:17;20.00;65.10
62583;DHT22;48641;51.676;5.808;2023-05-14T03:21:42;20.00;65.10
62583;DHT22;48641;51.676;5.808;2023-05-14T03:24:08;20.00;65.20
62583;DHT22;48641;51.676;5.808;2023-05-14T03:26:33;20.00;65.20
62583;DHT22;48641;51.676;5.808;2023-05-14T03:28:59;20.00;65.10
62583;DHT22;48641;51.676;5.808;2023-05-14T03:31:25;20.00;65.10
62583;DHT22;48641;51.676;5.808;2023-05-14T03:33:51;20.00;65.10
62583;DHT22;48641;51.676;5.808;2023-05-14T03:36:16;20.00;65.20
62583;DHT22;48641;51.676;5.808;2023-05-14T03:38:42;20.00;65.20
62583;DHT22;48641;51.676;5.808;2023-05-14T03:41:07;20.00;65.20
62583;DHT22;48641;51.676;5.808;2023-05-14T03:43:33;20.00;65.20
62583;DHT22;48641;51.676;5.808;2023-05-14T03:45:59;20.00;65.30
62583;DHT22;48641;51.676;5.808;2023-05-14T03:48:25;19.90;65.20
62583;DHT22;48641;51.676;5.808;2023-05-14T03:50:50;19.90;65.20
62583;DHT22;48641;51.676;5.808;2023-05-14T03:53:16;20.00;65.30
62583;DHT22;48641;51.676;5.808;2023-05-14T03:55:42;20.00;66.20
62583;DHT22;48641;51.676;5.808;2023-05-14T03:58:07;19.90;65.20
62583;DHT22;48641;51.676;5.808;2023-05-14T04:00:39;19.90;65.20
62583;DHT22;48641;51.676;5.808;2023-05-14T04:03:05;19.90;65.20
62583;DHT22;48641;51.676;5.808;2023-05-14T04:05:31;20.00;65.20
62583;DHT22;48641;51.676;5.808;2023-05-14T04:07:56;20.00;65.20
62583;DHT22;48641;51.676;5.808;2023-05-14T04:10:22;19.90;65.10
62583;DHT22;48641;51.676;5.808;2023-05-14T04:12:48;19.90;65.10
62583;DHT22;48641;51.676;5.808;2023-05-14T04:15:13;19.90;65.00
62583;DHT22;48641;51.676;5.808;2023-05-14T04:17:39;19.90;65.00
62583;DHT22;48641;51.676;5.808;2023-05-14T04:20:05;19.90;65.00
62583;DHT22;48641;51.676;5.808;2023-05-14T04:22:31;19.90;65.00
62583;DHT22;48641;51.676;5.808;2023-05-14T04:24:57;19.90;65.00
62583;DHT22;48641;51.676;5.808;2023-05-14T04:27:22;19.90;65.00
62583;DHT22;48641;51.676;5.808;2023-05-14T04:29:48;19.90;65.00
62583;DHT22;48641;51.676;5.808;2023-05-14T04:32:15;19.90;65.00
62583;DHT22;48641;51.676;5.808;2023-05-14T04:34:40;19.90;65.00
62583;DHT22;48641;51.676;5.808;2023-05-14T04:37:06;19.90;65.00
62583;DHT22;48641;51.676;5.808;2023-05-14T04:39:32;19.90;65.00
62583;DHT22;48641;51.676;5.808;2023-05-14T04:41:58;19.90;65.00
62583;DHT22;48641;51.676;5.808;2023-05-14T04:44:23;19.80;65.00
62583;DHT22;48641;51.676;5.808;2023-05-14T04:46:49;19.80;65.00
62583;DHT22;48641;51.676;5.808;2023-05-14T04:49:14;19.80;65.00
62583;DHT22;48641;51.676;5.808;2023-05-14T04:51:40;19.80;65.00
62583;DHT22;48641;51.676;5.808;2023-05-14T04:54:05;19.80;65.00
62583;DHT22;48641;51.676;5.808;2023-05-14T04:56:31;19.80;64.90
62583;DHT22;48641;51.676;5.808;2023-05-14T04:58:57;19.80;65.00
62583;DHT22;48641;51.676;5.808;2023-05-14T05:01:22;19.80;65.00
62583;DHT22;48641;51.676;5.808;2023-05-14T05:03:48;19.80;65.00
62583;DHT22;48641;51.676;5.808;2023-05-14T05:06:13;19.80;65.00
62583;DHT22;48641;51.676;5.808;2023-05-14T05:08:39;19.80;65.00
62583;DHT22;48641;51.676;5.808;2023-05-14T05:11:06;19.80;65.00
62583;DHT22;48641;51.676;5.808;2023-05-14T05:13:31;19.80;64.90
62583;DHT22;48641;51.676;5.808;2023-05-14T05:15:57;19.80;64.90
62583;DHT22;48641;51.676;5.808;2023-05-14T05:18:23;19.80;64.90
62583;DHT22;48641;51.676;5.808;2023-05-14T05:20:48;19.80;64.90
62583;DHT22;48641;51.676;5.808;2023-05-14T05:23:14;19.80;64.90
62583;DHT22;48641;51.676;5.808;2023-05-14T05:25:40;19.80;64.90
62583;DHT22;48641;51.676;5.808;2023-05-14T05:28:05;19.80;65.00
62583;DHT22;48641;51.676;5.808;2023-05-14T05:30:31;19.80;64.90
62583;DHT22;48641;51.676;5.808;2023-05-14T05:32:57;19.80;65.00
62583;DHT22;48641;51.676;5.808;2023-05-14T05:35:23;19.80;64.90
62583;DHT22;48641;51.676;5.808;2023-05-14T05:37:48;19.80;64.90
62583;DHT22;48641;51.676;5.808;2023-05-14T05:40:14;19.80;64.90
62583;DHT22;48641;51.676;5.808;2023-05-14T05:42:40;19.80;65.00
62583;DHT22;48641;51.676;5.808;2023-05-14T05:45:06;19.80;65.00
62583;DHT22;48641;51.676;5.808;2023-05-14T05:47:33;19.70;64.80
62583;DHT22;48641;51.676;5.808;2023-05-14T05:49:59;19.70;64.60
62583;DHT22;48641;51.676;5.808;2023-05-14T05:52:24;19.70;64.50
62583;DHT22;48641;51.676;5.808;2023-05-14T05:54:52;19.70;64.50
62583;DHT22;48641;51.676;5.808;2023-05-14T05:57:18;19.70;64.40
62583;DHT22;48641;51.676;5.808;2023-05-14T05:59:43;19.70;64.30
62583;DHT22;48641;51.676;5.808;2023-05-14T06:02:09;19.70;64.30
62583;DHT22;48641;51.676;5.808;2023-05-14T06:04:35;19.70;64.20
62583;DHT22;48641;51.676;5.808;2023-05-14T06:07:01;19.70;64.30
62583;DHT22;48641;51.676;5.808;2023-05-14T06:09:26;19.70;64.20
62583;DHT22;48641;51.676;5.808;2023-05-14T06:11:52;19.60;64.20
62583;DHT22;48641;51.676;5.808;2023-05-14T06:14:17;19.60;64.20
62583;DHT22;48641;51.676;5.808;2023-05-14T06:16:43;19.60;65.20
62583;DHT22;48641;51.676;5.808;2023-05-14T06:19:08;19.60;64.20
62583;DHT22;48641;51.676;5.808;2023-05-14T06:21:34;19.60;64.20
62583;DHT22;48641;51.676;5.808;2023-05-14T06:24:00;19.60;64.20
62583;DHT22;48641;51.676;5.808;2023-05-14T06:26:25;19.60;65.20
62583;DHT22;48641;51.676;5.808;2023-05-14T06:28:51;19.60;64.20
62583;DHT22;48641;51.676;5.808;2023-05-14T06:31:17;19.60;64.20
62583;DHT22;48641;51.676;5.808;2023-05-14T06:33:43;19.60;64.20
62583;DHT22;48641;51.676;5.808;2023-05-14T06:36:09;19.60;64.30
62583;DHT22;48641;51.676;5.808;2023-05-14T06:38:35;19.60;64.30
62583;DHT22;48641;51.676;5.808;2023-05-14T06:41:01;19.60;65.20
62583;DHT22;48641;51.676;5.808;2023-05-14T06:43:27;19.60;64.20
62583;DHT22;48641;51.676;5.808;2023-05-14T06:45:53;19.60;64.20
62583;DHT22;48641;51.676;5.808;2023-05-14T06:48:18;19.60;64.10
62583;DHT22;48641;51.676;5.808;2023-05-14T06:50:45;19.60;64.10
62583;DHT22;48641;51.676;5.808;2023-05-14T06:53:11;19.60;64.10
62583;DHT22;48641;51.676;5.808;2023-05-14T06:55:36;19.60;64.20
62583;DHT22;48641;51.676;5.808;2023-05-14T06:58:02;19.60;64.10
62583;DHT22;48641;51.676;5.808;2023-05-14T07:00:29;19.60;64.10
62583;DHT22;48641;51.676;5.808;2023-05-14T07:02:54;19.60;64.10
62583;DHT22;48641;51.676;5.808;2023-05-14T07:05:20;19.60;64.10
62583;DHT22;48641;51.676;5.808;2023-05-14T07:07:46;19.60;64.10
62583;DHT22;48641;51.676;5.808;2023-05-14T07:10:11;19.60;64.20
62583;DHT22;48641;51.676;5.808;2023-05-14T07:12:37;19.60;64.20
62583;DHT22;48641;51.676;5.808;2023-05-14T07:15:03;19.60;64.30
62583;DHT22;48641;51.676;5.808;2023-05-14T07:17:28;19.60;64.30
62583;DHT22;48641;51.676;5.808;2023-05-14T07:19:54;19.60;64.30
62583;DHT22;48641;51.676;5.808;2023-05-14T07:22:20;19.60;64.30
62583;DHT22;48641;51.676;5.808;2023-05-14T07:24:46;19.60;64.40
62583;DHT22;48641;51.676;5.808;2023-05-14T07:27:12;19.60;64.30
62583;DHT22;48641;51.676;5.808;2023-05-14T07:29:37;19.60;64.40
62583;DHT22;48641;51.676;5.808;2023-05-14T07:32:03;19.60;64.40
62583;DHT22;48641;51.676;5.808;2023-05-14T07:34:29;19.60;64.40
62583;DHT22;48641;51.676;5.808;2023-05-14T07:36:55;19.60;64.50
62583;DHT22;48641;51.676;5.808;2023-05-14T07:39:20;19.60;64.40
62583;DHT22;48641;51.676;5.808;2023-05-14T07:41:46;19.60;64.50
62583;DHT22;48641;51.676;5.808;2023-05-14T07:44:12;19.60;64.50
62583;DHT22;48641;51.676;5.808;2023-05-14T07:46:37;19.60;64.50
62583;DHT22;48641;51.676;5.808;2023-05-14T07:49:03;19.60;64.50
62583;DHT22;48641;51.676;5.808;2023-05-14T07:51:29;19.60;64.50
62583;DHT22;48641;51.676;5.808;2023-05-14T07:53:54;19.60;64.40
62583;DHT22;48641;51.676;5.808;2023-05-14T07:56:23;19.60;64.50
62583;DHT22;48641;51.676;5.808;2023-05-14T07:58:49;19.60;64.20
62583;DHT22;48641;51.676;5.808;2023-05-14T08:01:15;19.60;64.20
62583;DHT22;48641;51.676;5.808;2023-05-14T08:03:41;19.60;64.30
62583;DHT22;48641;51.676;5.808;2023-05-14T08:06:06;19.60;64.20
62583;DHT22;48641;51.676;5.808;2023-05-14T08:08:32;19.60;64.30
62583;DHT22;48641;51.676;5.808;2023-05-14T08:10:58;19.60;64.20
62583;DHT22;48641;51.676;5.808;2023-05-14T08:13:23;19.60;64.30
62583;DHT22;48641;51.676;5.808;2023-05-14T08:15:49;19.60;64.30
62583;DHT22;48641;51.676;5.808;2023-05-14T08:18:15;19.60;64.30
62583;DHT22;48641;51.676;5.808;2023-05-14T08:20:40;19.60;64.30
62583;DHT22;48641;51.676;5.808;2023-05-14T08:23:06;19.60;64.30
62583;DHT22;48641;51.676;5.808;2023-05-14T08:25:32;19.60;64.30
62583;DHT22;48641;51.676;5.808;2023-05-14T08:27:58;19.60;64.40
62583;DHT22;48641;51.676;5.808;2023-05-14T08:30:24;19.60;64.50
62583;DHT22;48641;51.676;5.808;2023-05-14T08:32:50;19.60;64.40
62583;DHT22;48641;51.676;5.808;2023-05-14T08:35:16;19.60;64.40
62583;DHT22;48641;51.676;5.808;2023-05-14T08:37:42;19.60;64.50
62583;DHT22;48641;51.676;5.808;2023-05-14T08:40:08;19.60;64.50
62583;DHT22;48641;51.676;5.808;2023-05-14T08:42:37;19.60;65.50
62583;DHT22;48641;51.676;5.808;2023-05-14T08:45:09;19.60;64.50
62583;DHT22;48641;51.676;5.808;2023-05-14T08:47:36;19.60;64.50
62583;DHT22;48641;51.676;5.808;2023-05-14T08:50:04;19.60;64.50
62583;DHT22;48641;51.676;5.808;2023-05-14T08:52:31;19.60;64.50
62583;DHT22;48641;51.676;5.808;2023-05-14T08:55:03;19.60;64.60
62583;DHT22;48641;51.676;5.808;2023-05-14T08:57:31;19.60;64.70
62583;DHT22;48641;51.676;5.808;2023-05-14T08:59:56;19.60;64.60
62583;DHT22;48641;51.676;5.808;2023-05-14T09:02:27;19.60;64.60
62583;DHT22;48641;51.676;5.808;2023-05-14T09:04:55;19.60;64.70
62583;DHT22;48641;51.676;5.808;2023-05-14T09:07:21;19.60;64.70
62583;DHT22;48641;51.676;5.808;2023-05-14T09:09:47;19.60;64.70
62583;DHT22;48641;51.676;5.808;2023-05-14T09:12:13;19.60;64.70
62583;DHT22;48641;51.676;5.808;2023-05-14T09:14:38;19.60;64.80
62583;DHT22;48641;51.676;5.808;2023-05-14T09:17:04;19.60;64.70
62583;DHT22;48641;51.676;5.808;2023-05-14T09:19:30;19.60;64.70
62583;DHT22;48641;51.676;5.808;2023-05-14T09:21:58;19.60;64.70
62583;DHT22;48641;51.676;5.808;2023-05-14T09:24:26;19.60;64.70
62583;DHT22;48641;51.676;5.808;2023-05-14T09:26:55;19.60;64.80
62583;DHT22;48641;51.676;5.808;2023-05-14T09:29:25;19.60;64.80
62583;DHT22;48641;51.676;5.808;2023-05-14T09:31:52;19.60;64.70
62583;DHT22;48641;51.676;5.808;2023-05-14T09:34:25;19.60;64.80
62583;DHT22;48641;51.676;5.808;2023-05-14T09:37:03;19.60;64.80
62583;DHT22;48641;51.676;5.808;2023-05-14T09:39:30;19.60;65.70
62583;DHT22;48641;51.676;5.808;2023-05-14T09:41:56;19.60;64.80
62583;DHT22;48641;51.676;5.808;2023-05-14T09:44:22;19.60;64.80
62583;DHT22;48641;51.676;5.808;2023-05-14T09:46:48;19.60;64.80
62583;DHT22;48641;51.676;5.808;2023-05-14T09:49:14;19.60;65.40
62583;DHT22;48641;51.676;5.808;2023-05-14T09:51:40;19.60;66.20
62583;DHT22;48641;51.676;5.808;2023-05-14T09:54:06;19.70;66.50
62583;DHT22;48641;51.676;5.808;2023-05-14T09:56:33;19.70;66.70
62583;DHT22;48641;51.676;5.808;2023-05-14T09:59:00;19.70;66.80
62583;DHT22;48641;51.676;5.808;2023-05-14T10:01:28;19.80;67.60
62583;DHT22;48641;51.676;5.808;2023-05-14T10:03:54;19.80;67.00
62583;DHT22;48641;51.676;5.808;2023-05-14T10:06:24;19.80;66.80
62583;DHT22;48641;51.676;5.808;2023-05-14T10:08:55;19.90;66.70
62583;DHT22;48641;51.676;5.808;2023-05-14T10:11:23;19.80;66.50
62583;DHT22;48641;51.676;5.808;2023-05-14T10:14:16;19.80;66.40
62583;DHT22;48641;51.676;5.808;2023-05-14T10:16:47;19.80;66.20
62583;DHT22;48641;51.676;5.808;2023-05-14T10:19:15;19.80;66.30
62583;DHT22;48641;51.676;5.808;2023-05-14T10:21:44;19.80;66.20
62583;DHT22;48641;51.676;5.808;2023-05-14T10:24:12;19.80;66.10
62583;DHT22;48641;51.676;5.808;2023-05-14T10:26:39;19.80;66.00
62583;DHT22;48641;51.676;5.808;2023-05-14T10:29:09;19.80;65.90
62583;DHT22;48641;51.676;5.808;2023-05-14T10:31:50;19.80;65.90
62583;DHT22;48641;51.676;5.808;2023-05-14T10:34:37;19.80;65.90
62583;DHT22;48641;51.676;5.808;2023-05-14T10:37:08;19.80;65.80
62583;DHT22;48641;51.676;5.808;2023-05-14T10:39:48;19.80;65.90
62583;DHT22;48641;51.676;5.808;2023-05-14T10:44:53;19.80;65.80
62583;DHT22;48641;51.676;5.808;2023-05-14T10:47:20;19.80;65.70
62583;DHT22;48641;51.676;5.808;2023-05-14T10:49:47;19.80;66.70
62583;DHT22;48641;51.676;5.808;2023-05-14T10:52:18;19.80;65.50
62583;DHT22;48641;51.676;5.808;2023-05-14T10:54:51;19.90;65.60
62583;DHT22;48641;51.676;5.808;2023-05-14T10:57:18;19.90;65.50
62583;DHT22;48641;51.676;5.808;2023-05-14T10:59:46;19.80;65.50
62583;DHT22;48641;51.676;5.808;2023-05-14T11:02:35;19.90;65.60
62583;DHT22;48641;51.676;5.808;2023-05-14T11:07:38;19.90;65.60
62583;DHT22;48641;51.676;5.808;2023-05-14T11:10:06;19.90;65.50
62583;DHT22;48641;51.676;5.808;2023-05-14T11:12:33;19.90;65.60
62583;DHT22;48641;51.676;5.808;2023-05-14T11:15:05;19.90;65.60
62583;DHT22;48641;51.676;5.808;2023-05-14T11:17:31;19.90;65.60
62583;DHT22;48641;51.676;5.808;2023-05-14T11:19:58;19.90;65.60
62583;DHT22;48641;51.676;5.808;2023-05-14T11:22:24;19.90;65.60
62583;DHT22;48641;51.676;5.808;2023-05-14T11:24:50;19.90;65.70
62583;DHT22;48641;51.676;5.808;2023-05-14T11:27:17;20.00;65.70
62583;DHT22;48641;51.676;5.808;2023-05-14T11:29:44;20.00;65.70
62583;DHT22;48641;51.676;5.808;2023-05-14T11:32:10;20.00;65.70
62583;DHT22;48641;51.676;5.808;2023-05-14T11:34:36;20.00;65.90
62583;DHT22;48641;51.676;5.808;2023-05-14T11:37:03;20.00;65.70
62583;DHT22;48641;51.676;5.808;2023-05-14T11:39:32;20.00;65.70
62583;DHT22;48641;51.676;5.808;2023-05-14T11:42:01;20.10;65.80
62583;DHT22;48641;51.676;5.808;2023-05-14T11:44:27;20.10;65.70
62583;DHT22;48641;51.676;5.808;2023-05-14T11:46:54;20.10;65.70
62583;DHT22;48641;51.676;5.808;2023-05-14T11:49:21;20.10;65.60
62583;DHT22;48641;51.676;5.808;2023-05-14T11:51:48;20.10;65.60
62583;DHT22;48641;51.676;5.808;2023-05-14T11:54:13;20.20;65.70
62583;DHT22;48641;51.676;5.808;2023-05-14T11:56:39;20.10;65.70
62583;DHT22;48641;51.676;5.808;2023-05-14T11:59:05;20.10;65.70
62583;DHT22;48641;51.676;5.808;2023-05-14T12:01:36;20.20;65.70
62583;DHT22;48641;51.676;5.808;2023-05-14T12:04:03;20.20;65.80
62583;DHT22;48641;51.676;5.808;2023-05-14T12:06:32;20.20;65.70
62583;DHT22;48641;51.676;5.808;2023-05-14T12:08:57;20.20;65.60
62583;DHT22;48641;51.676;5.808;2023-05-14T12:11:23;20.20;65.60
62583;DHT22;48641;51.676;5.808;2023-05-14T12:13:48;20.10;65.50
62583;DHT22;48641;51.676;5.808;2023-05-14T12:16:14;20.20;65.60
62583;DHT22;48641;51.676;5.808;2023-05-14T12:18:41;20.20;65.60
62583;DHT22;48641;51.676;5.808;2023-05-14T12:21:07;20.20;65.60
62583;DHT22;48641;51.676;5.808;2023-05-14T12:23:33;20.20;65.70
62583;DHT22;48641;51.676;5.808;2023-05-14T12:26:03;20.20;65.70
62583;DHT22;48641;51.676;5.808;2023-05-14T12:28:30;20.20;65.70
62583;DHT22;48641;51.676;5.808;2023-05-14T12:30:57;20.20;65.70
62583;DHT22;48641;51.676;5.808;2023-05-14T12:33:24;20.30;65.70
62583;DHT22;48641;51.676;5.808;2023-05-14T12:35:51;20.20;65.70
62583;DHT22;48641;51.676;5.808;2023-05-14T12:38:26;20.30;65.70
62583;DHT22;48641;51.676;5.808;2023-05-14T12:40:52;20.30;64.60
62583;DHT22;48641;51.676;5.808;2023-05-14T12:43:18;20.30;64.90
62583;DHT22;48641;51.676;5.808;2023-05-14T12:45:43;20.30;65.10
62583;DHT22;48641;51.676;5.808;2023-05-14T12:48:10;20.30;65.20
62583;DHT22;48641;51.676;5.808;2023-05-14T12:50:35;20.30;65.30
62583;DHT22;48641;51.676;5.808;2023-05-14T12:53:01;20.40;65.40
62583;DHT22;48641;51.676;5.808;2023-05-14T12:55:29;20.40;65.40
62583;DHT22;48641;51.676;5.808;2023-05-14T12:57:55;20.40;65.50
62583;DHT22;48641;51.676;5.808;2023-05-14T13:00:20;20.40;65.40
62583;DHT22;48641;51.676;5.808;2023-05-14T13:02:46;20.40;65.20
62583;DHT22;48641;51.676;5.808;2023-05-14T13:05:11;20.40;65.20
62583;DHT22;48641;51.676;5.808;2023-05-14T13:07:37;20.40;65.30
62583;DHT22;48641;51.676;5.808;2023-05-14T13:10:04;20.40;65.30
62583;DHT22;48641;51.676;5.808;2023-05-14T13:12:30;20.40;65.30
62583;DHT22;48641;51.676;5.808;2023-05-14T13:14:56;20.40;65.40
62583;DHT22;48641;51.676;5.808;2023-05-14T13:17:22;20.40;65.40
62583;DHT22;48641;51.676;5.808;2023-05-14T13:19:47;20.40;65.50
62583;DHT22;48641;51.676;5.808;2023-05-14T13:22:13;20.40;65.50
62583;DHT22;48641;51.676;5.808;2023-05-14T13:24:41;20.40;65.50
62583;DHT22;48641;51.676;5.808;2023-05-14T13:27:07;20.50;65.60
62583;DHT22;48641;51.676;5.808;2023-05-14T13:29:32;20.40;65.60
62583;DHT22;48641;51.676;5.808;2023-05-14T13:31:58;20.40;65.60
62583;DHT22;48641;51.676;5.808;2023-05-14T13:34:23;20.50;65.60
62583;DHT22;48641;51.676;5.808;2023-05-14T13:36:49;20.50;65.60
62583;DHT22;48641;51.676;5.808;2023-05-14T13:39:15;20.50;64.80
62583;DHT22;48641;51.676;5.808;2023-05-14T13:41:40;20.50;64.30
62583;DHT22;48641;51.676;5.808;2023-05-14T13:44:06;20.50;64.70
62583;DHT22;48641;51.676;5.808;2023-05-14T13:46:32;20.50;64.90
62583;DHT22;48641;51.676;5.808;2023-05-14T13:48:57;20.50;65.00
62583;DHT22;48641;51.676;5.808;2023-05-14T13:51:23;20.50;65.10
62583;DHT22;48641;51.676;5.808;2023-05-14T13:53:49;20.50;65.20
62583;DHT22;48641;51.676;5.808;2023-05-14T13:56:14;20.60;65.30
62583;DHT22;48641;51.676;5.808;2023-05-14T13:58:40;20.50;65.30
62583;DHT22;48641;51.676;5.808;2023-05-14T14:01:05;20.60;65.30
62583;DHT22;48641;51.676;5.808;2023-05-14T14:03:32;20.50;65.30
62583;DHT22;48641;51.676;5.808;2023-05-14T14:05:57;20.60;65.40
62583;DHT22;48641;51.676;5.808;2023-05-14T14:08:23;20.60;65.30
62583;DHT22;48641;51.676;5.808;2023-05-14T14:10:48;20.60;65.30
62583;DHT22;48641;51.676;5.808;2023-05-14T14:13:14;20.60;65.40
62583;DHT22;48641;51.676;5.808;2023-05-14T14:15:39;20.60;66.40
62583;DHT22;48641;51.676;5.808;2023-05-14T14:18:05;20.60;65.40
62583;DHT22;48641;51.676;5.808;2023-05-14T14:20:31;20.60;65.50
62583;DHT22;48641;51.676;5.808;2023-05-14T14:22:57;20.60;65.50
62583;DHT22;48641;51.676;5.808;2023-05-14T14:25:33;20.60;65.40
62583;DHT22;48641;51.676;5.808;2023-05-14T14:27:58;20.60;65.30
62583;DHT22;48641;51.676;5.808;2023-05-14T14:30:24;20.60;65.40
62583;DHT22;48641;51.676;5.808;2023-05-14T14:32:50;20.60;65.40
62583;DHT22;48641;51.676;5.808;2023-05-14T14:35:18;20.60;65.40
62583;DHT22;48641;51.676;5.808;2023-05-14T14:37:44;20.60;65.40
62583;DHT22;48641;51.676;5.808;2023-05-14T14:40:14;20.60;65.50
62583;DHT22;48641;51.676;5.808;2023-05-14T14:42:40;20.60;65.50
62583;DHT22;48641;51.676;5.808;2023-05-14T14:45:07;20.60;65.60
62583;DHT22;48641;51.676;5.808;2023-05-14T14:47:33;20.60;65.60
62583;DHT22;48641;51.676;5.808;2023-05-14T14:49:59;20.60;65.70
62583;DHT22;48641;51.676;5.808;2023-05-14T14:52:25;20.60;65.60
62583;DHT22;48641;51.676;5.808;2023-05-14T14:54:51;20.70;64.80
62583;DHT22;48641;51.676;5.808;2023-05-14T14:57:17;20.70;64.70
62583;DHT22;48641;51.676;5.808;2023-05-14T14:59:42;20.70;64.80
62583;DHT22;48641;51.676;5.808;2023-05-14T15:02:08;20.70;64.80
62583;DHT22;48641;51.676;5.808;2023-05-14T15:04:34;20.70;65.00
62583;DHT22;48641;51.676;5.808;2023-05-14T15:07:01;20.70;65.00
62583;DHT22;48641;51.676;5.808;2023-05-14T15:09:26;20.70;65.10
62583;DHT22;48641;51.676;5.808;2023-05-14T15:11:52;20.70;65.20
62583;DHT22;48641;51.676;5.808;2023-05-14T15:14:18;20.70;65.10
62583;DHT22;48641;51.676;5.808;2023-05-14T15:16:43;20.70;65.20
62583;DHT22;48641;51.676;5.808;2023-05-14T15:19:09;20.70;65.30
62583;DHT22;48641;51.676;5.808;2023-05-14T15:21:34;20.70;65.30
62583;DHT22;48641;51.676;5.808;2023-05-14T15:24:02;20.70;65.30
62583;DHT22;48641;51.676;5.808;2023-05-14T15:26:28;20.70;65.20
62583;DHT22;48641;51.676;5.808;2023-05-14T15:28:54;20.70;65.30
62583;DHT22;48641;51.676;5.808;2023-05-14T15:31:20;20.70;65.40
62583;DHT22;48641;51.676;5.808;2023-05-14T15:33:46;20.70;65.40
62583;DHT22;48641;51.676;5.808;2023-05-14T15:36:14;20.70;65.40